createdAt,value
2022-11-29T00:01:34.110Z,26.42
2022-11-29T00:04:01.965Z,25.75
2022-11-29T00:06:31.317Z,27.30
2022-11-29T00:09:00.984Z,32.90
2022-11-29T00:11:49.206Z,36.83
2022-11-29T00:14:18.293Z,40.40
2022-11-29T00:16:49.464Z,41.78
2022-11-29T00:19:16.832Z,36.97
2022-11-29T00:21:43.662Z,34.42
2022-11-29T00:24:10.505Z,32.58
2022-11-29T00:26:37.352Z,27.95
2022-11-29T00:29:05.400Z,29.83
2022-11-29T00:31:33.602Z,35.83
2022-11-29T00:34:03.295Z,30.98
2022-11-29T00:36:31.007Z,29.83
2022-11-29T00:38:58.252Z,24.73
2022-11-29T00:41:25.574Z,23.45
2022-11-29T00:43:52.488Z,24.33
2022-11-29T00:46:19.519Z,22.42
2022-11-29T00:48:46.340Z,22.00
2022-11-29T00:51:13.337Z,23.55
2022-11-29T00:53:40.420Z,23.40
2022-11-29T00:56:07.807Z,19.70
2022-11-29T00:58:36.019Z,23.02
2022-11-29T01:01:03.559Z,21.60
2022-11-29T01:03:30.611Z,20.38
2022-11-29T01:06:02.900Z,20.73
2022-11-29T01:08:29.841Z,23.35
2022-11-29T01:11:24.585Z,21.95
2022-11-29T01:13:55.103Z,22.30
2022-11-29T01:16:22.116Z,20.67
2022-11-29T01:18:48.987Z,21.85
2022-11-29T01:21:18.638Z,20.80
2022-11-29T01:23:46.826Z,20.40
2022-11-29T01:26:19.790Z,21.52
2022-11-29T01:28:49.197Z,19.60
2022-11-29T01:31:20.638Z,19.98
2022-11-29T01:33:47.589Z,20.08
2022-11-29T01:36:15.021Z,21.20
2022-11-29T01:38:45.039Z,19.92
2022-11-29T01:41:22.243Z,20.67
2022-11-29T01:44:28.461Z,21.00
2022-11-29T01:46:56.195Z,23.00
2022-11-29T01:49:30.424Z,21.13
2022-11-29T01:52:08.061Z,20.42
2022-11-29T01:54:40.981Z,19.80
2022-11-29T01:57:09.456Z,19.70
2022-11-29T01:59:41.202Z,21.23
2022-11-29T02:02:20.382Z,20.27
2022-11-29T02:04:48.290Z,21.83
2022-11-29T02:07:15.946Z,21.27
2022-11-29T02:09:42.910Z,19.30
2022-11-29T02:12:19.032Z,19.67
2022-11-29T02:15:10.193Z,19.83
2022-11-29T02:18:08.427Z,19.45
2022-11-29T02:21:03.816Z,18.65
2022-11-29T02:24:08.502Z,19.27
2022-11-29T02:27:15.709Z,20.77
2022-11-29T02:30:07.719Z,20.48
2022-11-29T02:33:15.321Z,21.15
2022-11-29T02:36:17.898Z,22.45
2022-11-29T02:39:21.948Z,21.17
2022-11-29T02:42:24.312Z,20.83
2022-11-29T02:45:19.157Z,21.40
2022-11-29T02:48:04.482Z,24.38
2022-11-29T02:50:52.998Z,21.42
2022-11-29T02:53:32.094Z,22.65
2022-11-29T02:56:06.054Z,21.73
2022-11-29T02:58:47.635Z,25.75
2022-11-29T03:01:40.978Z,20.85
2022-11-29T03:04:28.745Z,19.95
2022-11-29T03:07:19.188Z,21.08
2022-11-29T03:10:22.031Z,20.73
2022-11-29T03:12:52.184Z,20.25
2022-11-29T03:15:59.680Z,22.02
2022-11-29T03:19:04.420Z,23.38
2022-11-29T03:21:34.298Z,20.70
2022-11-29T03:24:12.581Z,20.98
2022-11-29T03:26:44.504Z,22.52
2022-11-29T03:29:40.296Z,20.02
2022-11-29T03:32:42.871Z,20.00
2022-11-29T03:35:46.741Z,21.50
2022-11-29T03:38:33.897Z,22.30
2022-11-29T03:41:25.514Z,21.38
2022-11-29T03:44:00.398Z,22.63
2022-11-29T03:46:54.589Z,22.35
2022-11-29T03:49:45.116Z,21.73
2022-11-29T03:52:24.112Z,21.63
2022-11-29T03:55:08.436Z,23.27
2022-11-29T03:57:45.169Z,23.20
2022-11-29T04:00:13.941Z,23.65
2022-11-29T04:03:00.761Z,20.90
2022-11-29T04:05:45.523Z,21.10
2022-11-29T04:08:34.413Z,21.45
2022-11-29T04:11:55.011Z,23.02
2022-11-29T04:14:48.410Z,21.48
2022-11-29T04:17:38.327Z,21.45
2022-11-29T04:20:46.692Z,20.17
2022-11-29T04:23:44.626Z,21.17
2022-11-29T04:26:36.712Z,22.30
2022-11-29T04:29:15.433Z,22.33
2022-11-29T04:31:54.500Z,23.08
2022-11-29T04:34:34.377Z,22.60
2022-11-29T04:37:18.640Z,23.27
2022-11-29T04:40:19.190Z,21.63
2022-11-29T04:42:58.060Z,21.58
2022-11-29T04:45:49.431Z,22.17
2022-11-29T04:49:27.347Z,21.02
2022-11-29T04:54:39.733Z,20.52
2022-11-29T04:57:10.603Z,22.02
2022-11-29T05:00:05.888Z,21.58
2022-11-29T05:02:57.181Z,21.73
2022-11-29T05:05:35.061Z,20.58
2022-11-29T05:08:46.840Z,21.15
2022-11-29T05:11:46.175Z,20.98
2022-11-29T05:14:42.015Z,22.17
2022-11-29T05:17:33.356Z,21.73
2022-11-29T05:20:21.580Z,24.48
2022-11-29T05:23:21.234Z,23.77
2022-11-29T05:26:06.684Z,21.75
2022-11-29T05:28:43.200Z,22.88
2022-11-29T05:31:26.296Z,23.02
2022-11-29T05:34:06.089Z,23.17
2022-11-29T05:36:50.150Z,25.13
2022-11-29T05:40:01.941Z,26.67
2022-11-29T05:42:50.736Z,25.92
2022-11-29T05:45:25.193Z,24.95
2022-11-29T05:48:18.529Z,26.03
2022-11-29T05:51:02.822Z,25.00
2022-11-29T05:53:39.681Z,27.58
2022-11-29T05:56:18.395Z,24.90
2022-11-29T05:58:54.215Z,27.42
2022-11-29T06:01:36.519Z,25.48
2022-11-29T06:04:17.618Z,25.33
2022-11-29T06:07:02.820Z,21.38
2022-11-29T06:10:01.372Z,25.05
2022-11-29T06:12:35.700Z,26.27
2022-11-29T06:15:13.700Z,24.80
2022-11-29T06:18:17.864Z,25.38
2022-11-29T06:20:53.967Z,25.05
2022-11-29T06:23:29.104Z,26.88
2022-11-29T06:26:04.120Z,30.33
2022-11-29T06:31:38.217Z,23.58
2022-11-29T06:34:10.276Z,25.73
2022-11-29T06:36:53.623Z,23.88
2022-11-29T06:39:21.174Z,27.52
2022-11-29T06:41:48.916Z,26.90
2022-11-29T06:44:16.097Z,25.40
2022-11-29T06:46:47.065Z,27.65
2022-11-29T06:49:23.047Z,28.13
2022-11-29T06:52:04.925Z,28.40
2022-11-29T06:55:08.931Z,26.27
2022-11-29T06:57:58.971Z,25.15
2022-11-29T07:00:32.743Z,25.60
2022-11-29T07:03:24.048Z,23.77
2022-11-29T07:05:51.504Z,24.40
2022-11-29T07:08:20.868Z,30.15
2022-11-29T07:10:50.114Z,26.88
2022-11-29T07:13:19.143Z,26.25
2022-11-29T07:16:17.273Z,28.15
2022-11-29T07:18:53.436Z,23.80
2022-11-29T07:21:59.846Z,30.42
2022-11-29T07:24:47.920Z,25.83
2022-11-29T07:27:21.109Z,23.73
2022-11-29T07:30:02.645Z,28.10
2022-11-29T07:32:51.345Z,25.15
2022-11-29T07:35:27.327Z,26.08
2022-11-29T07:38:12.284Z,28.85
2022-11-29T07:40:54.287Z,26.83
2022-11-29T07:43:26.101Z,29.40
2022-11-29T07:45:54.272Z,29.65
2022-11-29T07:48:21.101Z,26.40
2022-11-29T07:50:48.456Z,26.38
2022-11-29T07:53:20.433Z,30.13
2022-11-29T07:55:48.581Z,27.60
2022-11-29T07:58:17.164Z,26.35
2022-11-29T08:00:45.335Z,26.70
2022-11-29T08:03:12.461Z,27.75
2022-11-29T08:05:40.365Z,32.35
2022-11-29T08:08:07.922Z,28.48
2022-11-29T08:10:35.546Z,29.70
2022-11-29T08:13:02.837Z,29.75
2022-11-29T08:15:29.805Z,29.92
2022-11-29T08:17:56.726Z,28.25
2022-11-29T08:20:23.784Z,28.65
2022-11-29T08:22:59.190Z,31.60
2022-11-29T08:27:54.779Z,30.23
2022-11-29T08:30:22.473Z,30.05
2022-11-29T08:32:51.845Z,29.52
2022-11-29T08:35:20.299Z,29.67
2022-11-29T08:37:47.615Z,30.40
2022-11-29T08:40:15.551Z,33.78
2022-11-29T08:42:42.618Z,26.17
2022-11-29T08:45:11.029Z,31.38
2022-11-29T08:47:39.054Z,26.75
2022-11-29T08:50:17.926Z,31.85
2022-11-29T08:53:08.342Z,32.35
2022-11-29T08:55:40.004Z,35.95
2022-11-29T08:58:10.045Z,34.50
2022-11-29T09:00:37.789Z,35.88
2022-11-29T09:03:25.289Z,37.80
2022-11-29T09:05:52.794Z,36.55
2022-11-29T09:08:20.390Z,37.70
2022-11-29T09:10:47.641Z,38.13
2022-11-29T09:13:14.949Z,36.03
2022-11-29T09:15:43.405Z,35.83
2022-11-29T09:18:10.561Z,35.72
2022-11-29T09:20:37.502Z,36.83
2022-11-29T09:23:04.689Z,37.83
2022-11-29T09:25:31.876Z,37.22
2022-11-29T09:28:02.779Z,35.08
2022-11-29T09:30:35.017Z,34.65
2022-11-29T09:33:05.221Z,41.88
2022-11-29T09:35:32.955Z,46.70
2022-11-29T09:37:59.977Z,39.50
2022-11-29T09:40:40.148Z,40.10
2022-11-29T09:43:21.444Z,36.13
2022-11-29T09:45:55.567Z,42.08
2022-11-29T09:48:37.067Z,39.50
2022-11-29T09:51:31.074Z,37.10
2022-11-29T09:54:04.841Z,34.97
2022-11-29T09:56:38.452Z,35.78
2022-11-29T09:59:23.361Z,35.88
2022-11-29T10:02:21.052Z,37.10
2022-11-29T10:04:56.134Z,36.78
2022-11-29T10:07:33.827Z,37.28
2022-11-29T10:10:17.263Z,36.92
2022-11-29T10:13:05.070Z,39.25
2022-11-29T10:15:38.430Z,41.88
2022-11-29T10:18:24.049Z,40.83
2022-11-29T10:20:53.223Z,40.30
2022-11-29T10:23:57.688Z,39.45
2022-11-29T10:26:25.921Z,37.53
2022-11-29T10:28:57.600Z,35.60
2022-11-29T10:31:34.907Z,34.30
2022-11-29T10:34:10.647Z,33.08
2022-11-29T10:36:46.372Z,30.67
2022-11-29T10:39:39.537Z,31.98
2022-11-29T10:42:32.761Z,30.98
2022-11-29T10:45:01.387Z,29.33
2022-11-29T10:47:28.371Z,30.67
2022-11-29T10:49:55.524Z,29.35
2022-11-29T10:52:23.316Z,27.92
2022-11-29T10:54:53.846Z,26.48
2022-11-29T10:57:22.489Z,25.25
2022-11-29T11:00:06.916Z,24.00
2022-11-29T11:02:34.487Z,21.77
2022-11-29T11:05:01.939Z,21.58
2022-11-29T11:07:36.419Z,20.83
2022-11-29T11:10:14.612Z,21.57
2022-11-29T11:13:00.247Z,19.70
2022-11-29T11:15:28.738Z,19.63
2022-11-29T11:18:05.139Z,18.83
2022-11-29T11:20:34.960Z,17.52
2022-11-29T11:23:26.738Z,16.05
2022-11-29T11:26:03.006Z,16.45
2022-11-29T11:29:11.631Z,16.38
2022-11-29T11:31:39.893Z,15.50
2022-11-29T11:34:27.285Z,15.70
2022-11-29T11:37:13.164Z,15.95
2022-11-29T11:42:30.405Z,17.10
2022-11-29T11:44:57.790Z,16.17
2022-11-29T11:47:31.042Z,15.77
2022-11-29T11:50:02.059Z,16.88
2022-11-29T11:52:40.543Z,14.60
2022-11-29T11:55:32.570Z,14.57
2022-11-29T11:58:09.287Z,14.55
2022-11-29T12:01:06.090Z,15.02
2022-11-29T12:03:45.705Z,16.65
2022-11-29T12:06:31.176Z,16.75
2022-11-29T12:09:19.697Z,14.52
2022-11-29T12:12:10.499Z,15.38
2022-11-29T12:14:56.420Z,14.65
2022-11-29T12:20:01.866Z,14.48
2022-11-29T12:22:37.560Z,15.55
2022-11-29T12:25:10.545Z,14.25
2022-11-29T12:27:37.427Z,16.25
2022-11-29T12:30:12.218Z,16.20
2022-11-29T12:32:57.849Z,16.90
2022-11-29T12:35:36.987Z,17.42
2022-11-29T12:38:16.161Z,17.67
2022-11-29T12:40:51.774Z,18.30
2022-11-29T12:43:24.484Z,17.92
2022-11-29T12:46:13.247Z,17.98
2022-11-29T12:48:56.469Z,17.48
2022-11-29T12:51:49.477Z,19.85
2022-11-29T12:54:25.216Z,19.55
2022-11-29T12:57:18.166Z,18.80
2022-11-29T13:00:14.731Z,17.40
2022-11-29T13:02:53.663Z,18.95
2022-11-29T13:05:39.224Z,18.92
2022-11-29T13:08:37.876Z,20.17
2022-11-29T13:11:35.274Z,20.60
2022-11-29T13:14:42.208Z,19.65
2022-11-29T13:17:22.325Z,19.67
2022-11-29T13:20:21.271Z,19.20
2022-11-29T13:23:20.809Z,19.45
2022-11-29T13:25:51.317Z,20.13
2022-11-29T13:28:25.547Z,18.95
2022-11-29T13:30:59.590Z,18.67
2022-11-29T13:33:29.212Z,18.38
2022-11-29T13:36:13.711Z,18.40
2022-11-29T13:38:40.658Z,18.00
2022-11-29T13:41:37.136Z,18.45
2022-11-29T13:44:12.954Z,17.80
2022-11-29T13:46:39.881Z,18.17
2022-11-29T13:49:19.155Z,18.10
2022-11-29T13:51:46.211Z,18.35
2022-11-29T13:54:29.616Z,19.20
2022-11-29T13:57:08.716Z,18.98
2022-11-29T13:59:42.833Z,18.65
2022-11-29T14:02:31.174Z,19.83
2022-11-29T14:04:58.537Z,19.05
2022-11-29T14:07:25.549Z,19.50
2022-11-29T14:10:00.386Z,19.25
2022-11-29T14:12:55.333Z,21.20
2022-11-29T14:15:31.840Z,23.30
2022-11-29T14:18:07.276Z,23.13
2022-11-29T14:23:08.024Z,29.27
2022-11-29T14:25:53.946Z,34.83
2022-11-29T14:30:51.433Z,41.40
2022-11-29T14:33:43.115Z,44.13
2022-11-29T14:36:18.676Z,43.65
2022-11-29T14:39:02.883Z,44.35
2022-11-29T14:41:50.843Z,42.92
2022-11-29T14:44:19.098Z,42.53
2022-11-29T14:46:47.844Z,44.72
2022-11-29T14:49:26.237Z,40.42
2022-11-29T14:52:13.793Z,43.08
2022-11-29T14:54:56.597Z,42.28
2022-11-29T14:57:51.590Z,43.80
2022-11-29T15:00:20.843Z,39.67
2022-11-29T15:02:58.003Z,46.30
2022-11-29T15:05:54.997Z,48.33
2022-11-29T15:08:59.373Z,45.92
2022-11-29T15:11:35.513Z,44.63
2022-11-29T15:14:13.412Z,43.45
2022-11-29T15:16:57.019Z,39.45
2022-11-29T15:20:03.785Z,39.25
2022-11-29T15:25:17.759Z,37.03
2022-11-29T15:27:56.196Z,36.28
2022-11-29T15:30:31.379Z,37.72
2022-11-29T15:33:00.505Z,36.42
2022-11-29T15:35:27.777Z,37.83
2022-11-29T15:37:54.895Z,36.42
2022-11-29T15:40:26.191Z,39.13
2022-11-29T15:43:01.970Z,41.45
2022-11-29T15:45:37.559Z,41.63
2022-11-29T15:48:13.676Z,41.33
2022-11-29T15:50:48.432Z,41.17
2022-11-29T15:53:38.613Z,40.15
2022-11-29T15:56:15.279Z,39.45
2022-11-29T15:58:42.777Z,44.05
2022-11-29T16:01:14.265Z,43.08
2022-11-29T16:03:43.567Z,41.28
2022-11-29T16:06:24.735Z,44.65
2022-11-29T16:08:54.049Z,42.85
2022-11-29T16:11:27.622Z,45.78
2022-11-29T16:14:43.088Z,40.85
2022-11-29T16:17:10.239Z,43.35
2022-11-29T16:19:38.103Z,44.47
2022-11-29T16:22:15.480Z,43.10
2022-11-29T16:24:54.459Z,45.03
2022-11-29T16:27:23.112Z,41.63
2022-11-29T16:29:52.071Z,43.10
2022-11-29T16:32:31.229Z,43.22
2022-11-29T16:35:07.117Z,40.25
2022-11-29T16:37:44.253Z,40.42
2022-11-29T16:40:31.877Z,44.08
2022-11-29T16:43:04.778Z,47.92
2022-11-29T16:45:36.117Z,43.90
2022-11-29T16:48:28.251Z,55.92
2022-11-29T16:51:10.763Z,51.95
2022-11-29T16:53:41.499Z,52.80
2022-11-29T16:56:11.062Z,43.80
2022-11-29T16:59:16.631Z,57.35
2022-11-29T17:01:28.709Z,49.83
2022-11-29T17:03:57.913Z,48.10
2022-11-29T17:06:25.857Z,54.47
2022-11-29T17:08:55.127Z,70.07
2022-11-29T17:11:22.471Z,48.65
2022-11-29T17:13:52.690Z,42.05
2022-11-29T17:16:22.173Z,38.67
2022-11-29T17:18:49.652Z,38.25
2022-11-29T17:21:27.870Z,34.28
2022-11-29T17:23:54.803Z,37.53
2022-11-29T17:26:22.400Z,35.08
2022-11-29T17:28:51.351Z,37.03
2022-11-29T17:31:21.652Z,37.10
2022-11-29T17:33:48.663Z,40.33
2022-11-29T17:36:18.546Z,38.58
2022-11-29T17:38:46.283Z,38.47
2022-11-29T17:41:22.873Z,42.42
2022-11-29T17:43:51.401Z,41.13
2022-11-29T17:46:24.283Z,38.20
2022-11-29T17:48:52.235Z,40.30
2022-11-29T17:51:50.539Z,38.63
2022-11-29T17:54:09.028Z,38.88
2022-11-29T17:56:35.952Z,38.22
2022-11-29T17:59:04.211Z,38.40
2022-11-29T18:01:34.761Z,38.05
2022-11-29T18:04:03.643Z,39.33
2022-11-29T18:06:39.049Z,45.15
2022-11-29T18:11:46.481Z,45.42
2022-11-29T18:14:17.162Z,38.40
2022-11-29T18:16:45.420Z,37.17
2022-11-29T18:19:14.890Z,32.72
2022-11-29T18:21:41.819Z,37.53
2022-11-29T18:24:09.238Z,35.15
2022-11-29T18:26:37.948Z,36.80
2022-11-29T18:29:06.220Z,39.10
2022-11-29T18:31:38.902Z,41.05
2022-11-29T18:34:09.733Z,40.55
2022-11-29T18:36:47.943Z,37.95
2022-11-29T18:39:17.526Z,37.92
2022-11-29T18:41:48.116Z,36.08
2022-11-29T18:44:17.510Z,36.42
2022-11-29T18:46:45.289Z,32.45
2022-11-29T18:49:15.164Z,30.05
2022-11-29T18:51:44.742Z,28.52
2022-11-29T18:54:13.068Z,31.20
2022-11-29T18:56:40.078Z,31.15
2022-11-29T18:59:17.318Z,32.50
2022-11-29T19:01:46.364Z,35.33
2022-11-29T19:04:15.359Z,33.38
2022-11-29T19:06:43.222Z,31.98
2022-11-29T19:09:15.567Z,38.70
2022-11-29T19:11:42.746Z,38.17
2022-11-29T19:14:11.800Z,47.72
2022-11-29T19:16:44.223Z,38.80
2022-11-29T19:19:11.610Z,31.65
2022-11-29T19:21:39.968Z,31.58
2022-11-29T19:24:13.548Z,31.73
2022-11-29T19:26:41.358Z,32.35
2022-11-29T19:29:08.276Z,32.70
2022-11-29T19:31:35.478Z,33.45
2022-11-29T19:34:02.307Z,33.80
2022-11-29T19:36:31.086Z,32.55
2022-11-29T19:39:01.320Z,36.35
2022-11-29T19:41:32.278Z,35.47
2022-11-29T19:44:01.432Z,37.53
2022-11-29T19:46:31.430Z,37.88
2022-11-29T19:48:59.337Z,35.17
2022-11-29T19:51:27.951Z,34.13
2022-11-29T19:53:56.952Z,34.25
2022-11-29T19:56:24.051Z,34.80
2022-11-29T19:58:51.450Z,36.08
2022-11-29T20:01:25.013Z,36.45
2022-11-29T20:03:52.600Z,37.72
2022-11-29T20:06:19.686Z,43.30
2022-11-29T20:08:47.650Z,43.03
2022-11-29T20:11:22.947Z,37.08
2022-11-29T20:16:38.134Z,33.33
2022-11-29T20:19:12.460Z,35.05
2022-11-29T20:21:45.345Z,36.60
2022-11-29T20:24:14.390Z,35.05
2022-11-29T20:26:44.866Z,31.15
2022-11-29T20:29:12.334Z,31.02
2022-11-29T20:31:45.963Z,31.30
2022-11-29T20:34:16.468Z,32.47
2022-11-29T20:37:16.838Z,32.72
2022-11-29T20:40:05.491Z,36.90
2022-11-29T20:42:55.431Z,35.60
2022-11-29T20:45:23.990Z,33.58
2022-11-29T20:48:01.841Z,31.55
2022-11-29T20:50:31.331Z,30.35
2022-11-29T20:53:22.548Z,31.10
2022-11-29T20:55:49.675Z,31.73
2022-11-29T20:58:16.817Z,36.40
2022-11-29T21:00:43.912Z,37.10
2022-11-29T21:03:18.194Z,34.63
2022-11-29T21:05:45.985Z,33.10
2022-11-29T21:08:14.001Z,32.28
2022-11-29T21:10:40.905Z,32.05
2022-11-29T21:13:09.862Z,31.63
2022-11-29T21:15:36.939Z,30.40
2022-11-29T21:18:04.384Z,29.25
2022-11-29T21:20:31.507Z,30.30
2022-11-29T21:23:08.003Z,30.45
2022-11-29T21:25:59.265Z,29.63
2022-11-29T21:28:40.446Z,26.65
2022-11-29T21:31:12.978Z,26.92
2022-11-29T21:33:40.216Z,26.38
2022-11-29T21:36:08.830Z,30.60
2022-11-29T21:38:35.905Z,26.13
2022-11-29T21:41:02.868Z,27.13
2022-11-29T21:43:58.119Z,27.25
2022-11-29T21:46:17.259Z,26.90
2022-11-29T21:48:44.602Z,25.75
2022-11-29T21:51:11.945Z,26.23
2022-11-29T21:53:40.090Z,25.23
2022-11-29T21:56:09.767Z,24.98
2022-11-29T21:58:37.830Z,25.02
2022-11-29T22:01:12.515Z,24.20
2022-11-29T22:03:40.436Z,25.23
2022-11-29T22:06:09.881Z,24.95
2022-11-29T22:08:41.374Z,22.80
2022-11-29T22:11:10.598Z,22.38
2022-11-29T22:13:58.174Z,22.95
2022-11-29T22:16:25.741Z,22.83
2022-11-29T22:18:52.681Z,24.08
2022-11-29T22:21:19.679Z,25.08
2022-11-29T22:23:46.899Z,25.75
2022-11-29T22:26:13.852Z,25.33
2022-11-29T22:28:40.829Z,26.60
2022-11-29T22:31:11.139Z,26.75
2022-11-29T22:33:38.911Z,26.80
2022-11-29T22:36:11.117Z,26.10
2022-11-29T22:38:39.400Z,28.08
2022-11-29T22:41:12.367Z,29.05
2022-11-29T22:43:41.199Z,31.77
2022-11-29T22:46:17.805Z,32.47
2022-11-29T22:48:46.233Z,31.50
2022-11-29T22:51:18.484Z,28.63
2022-11-29T22:53:56.049Z,28.48
2022-11-29T22:56:25.395Z,27.52
2022-11-29T22:58:52.753Z,27.35
2022-11-29T23:01:22.321Z,26.70
2022-11-29T23:03:54.796Z,25.20
2022-11-29T23:06:36.864Z,26.15
2022-11-29T23:09:16.576Z,26.67
2022-11-29T23:11:46.021Z,26.65
2022-11-29T23:14:13.487Z,25.98
2022-11-29T23:16:41.986Z,26.75
2022-11-29T23:19:09.568Z,26.58
2022-11-29T23:21:38.610Z,26.48
2022-11-29T23:24:06.259Z,29.23
2022-11-29T23:26:37.394Z,29.63
2022-11-29T23:29:06.177Z,31.70
2022-11-29T23:31:33.686Z,28.77
2022-11-29T23:34:02.103Z,31.30
2022-11-29T23:36:28.931Z,30.92
2022-11-29T23:38:56.031Z,31.30
2022-11-29T23:41:22.937Z,30.63
2022-11-29T23:43:49.829Z,31.20
2022-11-29T23:46:22.689Z,29.40
2022-11-29T23:48:50.283Z,28.52
2022-11-29T23:51:18.092Z,28.55
2022-11-29T23:53:46.648Z,28.55
2022-11-29T23:56:17.657Z,27.40
2022-11-29T23:58:45.428Z,27.50
